Time;durP1;ratioP1;P1;durP2;ratioP2;P2;SDS_P1;SDS_P2;PMS_P1;PMS_P2;Temp;Humidity;BMP_temperature;BMP_pressure;BME280_temperature;BME280_humidity;BME280_pressure;Samples;Min_cycle;Max_cycle;Signal;HPM_P1;HPM_P2
2021/11/08 00:02:18;;;;;;;7.25;3.40;;;7.50;99.90;;;;;;5051859;28;20499;-75
2021/11/08 00:04:44;;;;;;;10.38;3.65;;;7.50;99.90;;;;;;5053741;28;20016;-75
2021/11/08 00:07:10;;;;;;;8.45;3.45;;;7.50;99.90;;;;;;5050099;28;20119;-74
2021/11/08 00:09:36;;;;;;;5.88;2.83;;;7.40;99.90;;;;;;5063103;28;20113;-75
2021/11/08 00:12:03;;;;;;;7.65;3.65;;;7.40;99.90;;;;;;5053774;28;20017;-75
2021/11/08 00:14:30;;;;;;;9.70;3.25;;;7.40;99.90;;;;;;5057679;28;20487;-75
2021/11/08 00:17:14;;;;;;;7.55;2.97;;;7.40;99.90;;;;;;5075802;28;20029;-75
2021/11/08 00:20:00;;;;;;;5.85;2.80;;;7.40;99.90;;;;;;5056997;28;20067;-75
2021/11/08 00:22:26;;;;;;;5.07;2.83;;;7.40;99.90;;;;;;5075708;28;20052;-75
2021/11/08 00:24:52;;;;;;;6.78;3.35;;;7.40;99.90;;;;;;5053529;28;20023;-76
2021/11/08 00:27:19;;;;;;;5.55;2.75;;;7.40;99.90;;;;;;5054660;28;20473;-75
2021/11/08 00:29:45;;;;;;;4.13;2.40;;;7.40;99.90;;;;;;5055715;28;20025;-76
2021/11/08 00:32:11;;;;;;;3.90;2.42;;;7.30;99.90;;;;;;5055252;28;20025;-75
2021/11/08 00:34:37;;;;;;;5.82;2.95;;;7.30;99.90;;;;;;5037117;28;20017;-76
2021/11/08 00:37:04;;;;;;;4.55;3.10;;;7.20;99.90;;;;;;5037179;28;20377;-75
2021/11/08 00:39:30;;;;;;;8.50;3.28;;;7.20;99.90;;;;;;5055685;28;20033;-76
2021/11/08 00:41:56;;;;;;;5.93;2.95;;;7.10;99.90;;;;;;5036504;28;20130;-76
2021/11/08 00:44:22;;;;;;;7.40;3.00;;;7.10;99.90;;;;;;5055635;28;20017;-77
2021/11/08 00:46:48;;;;;;;7.13;3.45;;;7.10;99.90;;;;;;5054871;28;20037;-76
2021/11/08 00:49:15;;;;;;;4.78;2.97;;;7.10;99.90;;;;;;5036319;28;20032;-75
2021/11/08 00:51:44;;;;;;;8.07;3.30;;;7.10;99.90;;;;;;5037318;28;20079;-76
2021/11/08 00:54:11;;;;;;;4.50;2.80;;;7.00;99.90;;;;;;5036245;28;20479;-77
2021/11/08 00:56:40;;;;;;;6.47;3.17;;;7.00;99.90;;;;;;5055179;28;20036;-77
2021/11/08 00:59:06;;;;;;;7.35;3.13;;;7.00;99.90;;;;;;5036829;28;20473;-75
2021/11/08 01:01:32;;;;;;;6.60;3.30;;;7.00;99.90;;;;;;5059289;28;20107;-76
2021/11/08 01:03:57;;;;;;;4.60;2.83;;;7.00;99.90;;;;;;5056763;28;20023;-77
2021/11/08 01:06:24;;;;;;;6.75;3.10;;;7.00;99.90;;;;;;5073532;28;20534;-77
2021/11/08 01:08:50;;;;;;;6.32;2.95;;;6.90;99.90;;;;;;5072038;28;20358;-77
2021/11/08 01:11:15;;;;;;;4.35;2.40;;;6.90;99.90;;;;;;5073111;28;20104;-75
2021/11/08 01:13:42;;;;;;;4.20;2.58;;;6.90;99.90;;;;;;5074177;28;20043;-75
2021/11/08 01:16:08;;;;;;;4.32;2.47;;;6.90;99.90;;;;;;5054738;28;20055;-76
2021/11/08 01:18:34;;;;;;;4.40;2.90;;;6.80;99.90;;;;;;5072774;28;20021;-75
2021/11/08 01:21:00;;;;;;;5.05;2.80;;;6.80;99.90;;;;;;5055526;28;20028;-76
2021/11/08 01:23:27;;;;;;;5.22;2.83;;;6.70;99.90;;;;;;5055997;28;20063;-75
2021/11/08 01:26:06;;;;;;;6.53;3.70;;;6.70;99.90;;;;;;5046651;28;20040;-75
2021/11/08 01:28:36;;;;;;;8.15;3.10;;;6.70;99.90;;;;;;5048694;28;20028;-75
2021/11/08 01:31:04;;;;;;;4.47;2.60;;;6.70;99.90;;;;;;5061767;28;20024;-75
2021/11/08 01:33:30;;;;;;;5.40;3.25;;;6.60;99.90;;;;;;5054406;28;20048;-74
2021/11/08 01:38:45;;;;;;;3.83;2.40;;;6.60;99.90;;;;;;5073894;28;20036;-74
2021/11/08 01:41:13;;;;;;;3.35;2.50;;;6.60;99.90;;;;;;5073930;28;20515;-75
2021/11/08 01:43:41;;;;;;;3.08;2.40;;;6.60;99.90;;;;;;5045650;28;20021;-74
2021/11/08 01:46:07;;;;;;;6.03;2.65;;;6.60;99.90;;;;;;5036321;28;20036;-74
2021/11/08 01:48:32;;;;;;;5.18;3.70;;;6.60;99.90;;;;;;5036054;28;20013;-75
2021/11/08 01:50:58;;;;;;;5.68;3.35;;;6.60;99.90;;;;;;5035198;28;20029;-74
2021/11/08 01:53:24;;;;;;;4.32;2.80;;;6.60;99.90;;;;;;5054099;28;20021;-74
2021/11/08 01:55:51;;;;;;;4.05;2.95;;;6.50;99.90;;;;;;5036250;28;20021;-74
2021/11/08 01:58:22;;;;;;;4.43;2.60;;;6.50;99.90;;;;;;5053171;28;20079;-74
2021/11/08 02:00:48;;;;;;;5.15;3.15;;;6.40;99.90;;;;;;5053596;28;20033;-74
2021/11/08 02:03:17;;;;;;;4.05;2.75;;;6.40;99.90;;;;;;5035681;28;20024;-74
2021/11/08 02:05:45;;;;;;;5.10;2.72;;;6.40;99.90;;;;;;5034945;28;20464;-74
2021/11/08 02:08:11;;;;;;;5.65;2.70;;;6.40;99.90;;;;;;5035542;28;20053;-75
2021/11/08 02:10:38;;;;;;;3.70;2.55;;;6.30;99.90;;;;;;5053288;28;20056;-76
2021/11/08 02:13:04;;;;;;;5.30;3.83;;;6.30;99.90;;;;;;5052932;28;20017;-75
2021/11/08 02:15:31;;;;;;;5.30;3.67;;;6.20;99.90;;;;;;5053729;28;20168;-75
2021/11/08 02:17:57;;;;;;;5.28;2.90;;;6.20;99.90;;;;;;5052956;28;20044;-75
2021/11/08 02:20:30;;;;;;;5.57;3.08;;;6.20;99.90;;;;;;5046418;28;20032;-75
2021/11/08 02:22:57;;;;;;;5.20;2.80;;;6.20;99.90;;;;;;5073658;28;20020;-75
2021/11/08 02:25:25;;;;;;;4.82;2.60;;;6.20;99.90;;;;;;5073434;28;20033;-75
2021/11/08 02:27:52;;;;;;;4.72;2.42;;;6.10;99.90;;;;;;5049076;28;20029;-76
2021/11/08 02:30:19;;;;;;;3.88;2.72;;;6.20;99.90;;;;;;5048206;28;20024;-75
2021/11/08 02:32:47;;;;;;;4.93;3.03;;;6.10;99.90;;;;;;5053598;28;20169;-75
2021/11/08 02:35:15;;;;;;;4.63;2.70;;;6.10;99.90;;;;;;5035031;28;20031;-75
2021/11/08 02:37:42;;;;;;;3.25;2.50;;;6.10;99.90;;;;;;5052658;28;20028;-75
2021/11/08 02:40:13;;;;;;;5.97;2.72;;;6.10;99.90;;;;;;5052356;28;20017;-76
2021/11/08 02:42:39;;;;;;;4.38;3.08;;;6.10;99.90;;;;;;5052907;28;20048;-76
2021/11/08 02:45:07;;;;;;;5.72;2.58;;;6.10;99.90;;;;;;5054262;28;20123;-75
2021/11/08 02:47:34;;;;;;;5.75;2.70;;;6.00;99.90;;;;;;5072142;28;20036;-75
2021/11/08 02:50:01;;;;;;;5.45;2.78;;;6.00;99.90;;;;;;5072718;28;20012;-76
2021/11/08 02:52:28;;;;;;;3.95;3.00;;;6.00;99.90;;;;;;5072992;28;20027;-75
2021/11/08 02:54:53;;;;;;;3.78;2.50;;;6.00;99.90;;;;;;5054091;28;20020;-74
2021/11/08 02:57:23;;;;;;;3.63;2.63;;;6.00;99.90;;;;;;5055052;28;20086;-75
2021/11/08 02:59:49;;;;;;;3.97;2.38;;;6.00;99.90;;;;;;5054751;28;20040;-76
2021/11/08 03:02:16;;;;;;;3.63;2.40;;;6.00;99.90;;;;;;5053835;28;20636;-75
2021/11/08 03:04:45;;;;;;;3.17;2.22;;;6.00;99.90;;;;;;5054915;28;20055;-75
2021/11/08 03:07:12;;;;;;;5.57;2.70;;;6.00;99.90;;;;;;5054267;28;20102;-76
2021/11/08 03:09:55;;;;;;;3.08;2.40;;;6.00;99.90;;;;;;5053895;28;20372;-75
2021/11/08 03:12:26;;;;;;;4.90;2.50;;;6.00;99.90;;;;;;5054865;28;20123;-75
2021/11/08 03:17:27;;;;;;;3.22;2.38;;;5.90;99.90;;;;;;5073098;28;20032;-75
2021/11/08 03:19:53;;;;;;;5.88;2.70;;;5.90;99.90;;;;;;5064635;28;20024;-75
2021/11/08 03:22:21;;;;;;;4.38;2.70;;;5.90;99.90;;;;;;5033671;28;20525;-75
2021/11/08 03:24:54;;;;;;;3.88;2.40;;;5.90;99.90;;;;;;5052257;28;20052;-76
2021/11/08 03:29:56;;;;;;;6.30;2.70;;;5.80;99.90;;;;;;5051691;28;20698;-75
2021/11/08 03:32:23;;;;;;;4.25;2.47;;;5.80;99.90;;;;;;5034406;28;20071;-75
2021/11/08 03:35:01;;;;;;;3.80;2.60;;;5.80;99.90;;;;;;5034213;28;20036;-76
2021/11/08 03:37:29;;;;;;;4.35;2.58;;;5.80;99.90;;;;;;5033630;28;20025;-75
2021/11/08 03:39:56;;;;;;;2.92;2.45;;;5.80;99.90;;;;;;5052166;28;20048;-74
2021/11/08 03:42:21;;;;;;;3.17;2.55;;;5.80;99.90;;;;;;5034040;28;20037;-74
2021/11/08 03:44:48;;;;;;;4.95;2.78;;;5.80;99.90;;;;;;5033071;28;20036;-76
2021/11/08 03:47:14;;;;;;;3.85;2.70;;;5.80;99.90;;;;;;5034126;28;20032;-74
2021/11/08 03:49:40;;;;;;;2.95;2.30;;;5.80;99.90;;;;;;5051841;28;20025;-75
2021/11/08 03:52:06;;;;;;;5.60;2.90;;;5.80;99.90;;;;;;5033429;28;20029;-75
2021/11/08 03:54:32;;;;;;;5.80;2.60;;;5.80;99.90;;;;;;5051946;28;20039;-74
2021/11/08 03:56:58;;;;;;;6.30;2.95;;;5.80;99.90;;;;;;5051045;28;20374;-76
2021/11/08 03:59:23;;;;;;;5.07;3.28;;;5.80;99.90;;;;;;5051968;28;20048;-75
2021/11/08 04:01:50;;;;;;;6.60;4.40;;;5.80;99.90;;;;;;5033906;28;20103;-76
2021/11/08 04:04:16;;;;;;;4.07;2.88;;;5.80;99.90;;;;;;5050933;28;20648;-76
2021/11/08 04:06:43;;;;;;;4.15;3.00;;;5.80;99.90;;;;;;5033878;28;20397;-75
2021/11/08 04:09:12;;;;;;;4.30;2.97;;;5.80;99.90;;;;;;5051664;28;20087;-75
2021/11/08 04:11:39;;;;;;;4.97;3.08;;;5.80;99.90;;;;;;5051128;28;20079;-75
2021/11/08 04:14:06;;;;;;;5.95;3.05;;;5.80;99.90;;;;;;5051580;28;20098;-77
2021/11/08 04:16:33;;;;;;;4.07;2.95;;;5.80;99.90;;;;;;5051811;28;20033;-77
2021/11/08 04:19:00;;;;;;;4.68;2.60;;;5.80;99.90;;;;;;5050803;28;20032;-74
2021/11/08 04:21:27;;;;;;;5.10;3.28;;;5.80;99.90;;;;;;5071874;28;20526;-73
2021/11/08 04:23:53;;;;;;;3.60;3.20;;;5.90;99.90;;;;;;5053732;28;20020;-74
2021/11/08 04:26:19;;;;;;;3.72;2.50;;;5.80;99.90;;;;;;5052715;28;20043;-73
2021/11/08 04:28:54;;;;;;;4.68;3.10;;;5.80;99.90;;;;;;5065810;28;20020;-74
2021/11/08 04:31:21;;;;;;;4.70;2.90;;;5.90;99.90;;;;;;5065184;28;20031;-74
2021/11/08 04:33:50;;;;;;;9.10;3.40;;;5.80;99.90;;;;;;5065101;28;20132;-74
2021/11/08 04:42:03;;;;;;;3.70;2.53;;;5.90;99.90;;;;;;5051508;28;20413;-74
2021/11/08 04:45:05;;;;;;;4.10;2.80;;;5.90;99.90;;;;;;5051537;28;20052;-75
2021/11/08 04:58:01;;;;;;;5.03;2.53;;;5.90;99.90;;;;;;5074965;28;20056;-74
2021/11/08 05:28:04;;;;;;;5.13;2.92;;;6.10;99.90;;;;;;5070443;28;20488;-73
2021/11/08 05:30:30;;;;;;;7.07;2.90;;;6.10;99.90;;;;;;5052689;28;20020;-77
2021/11/08 05:32:56;;;;;;;7.28;3.10;;;6.10;99.90;;;;;;5035123;28;20424;-76
2021/11/08 05:35:22;;;;;;;6.00;3.20;;;6.10;99.90;;;;;;5065344;28;20031;-76
2021/11/08 05:37:47;;;;;;;6.50;3.15;;;6.10;99.90;;;;;;5072506;28;20103;-75
2021/11/08 05:40:22;;;;;;;3.80;2.53;;;6.10;99.90;;;;;;5055058;28;20029;-74
2021/11/08 05:42:48;;;;;;;7.40;3.15;;;6.00;99.90;;;;;;5050462;28;20076;-74
2021/11/08 05:45:16;;;;;;;7.40;2.93;;;6.00;99.90;;;;;;5053835;28;20056;-75
2021/11/08 05:47:43;;;;;;;6.07;3.03;;;6.00;99.90;;;;;;5053175;28;20242;-76
2021/11/08 05:50:11;;;;;;;4.47;3.00;;;6.00;99.90;;;;;;5053356;28;20025;-75
2021/11/08 05:52:37;;;;;;;3.67;2.53;;;6.00;99.90;;;;;;5054053;28;20082;-75
2021/11/08 05:55:04;;;;;;;3.72;2.70;;;6.00;99.90;;;;;;5053839;28;20478;-74
2021/11/08 05:57:57;;;;;;;4.88;2.78;;;6.00;99.90;;;;;;5053640;28;20021;-75
2021/11/08 15:56:26;;;;;;;8.00;3.20;;;11.30;99.90;;;;;;5493392;23;20113;-75
2021/11/08 15:58:52;;;;;;;5.20;2.67;;;11.30;99.90;;;;;;4874682;29;20064;-77
2021/11/08 16:01:17;;;;;;;6.38;2.83;;;11.30;99.90;;;;;;4866003;29;20033;-77
2021/11/08 16:03:43;;;;;;;7.88;3.30;;;11.20;99.90;;;;;;4885015;29;20040;-80
2021/11/08 16:06:09;;;;;;;7.90;2.83;;;11.20;99.90;;;;;;4877230;29;20061;-77
2021/11/08 16:08:35;;;;;;;7.68;2.60;;;11.20;99.90;;;;;;4875945;29;20037;-78
2021/11/08 16:11:01;;;;;;;8.38;3.13;;;11.20;99.90;;;;;;4875965;29;20029;-77
2021/11/08 16:13:27;;;;;;;8.18;3.83;;;11.20;99.90;;;;;;4877878;29;20031;-77
2021/11/08 16:15:54;;;;;;;9.23;3.47;;;11.20;99.90;;;;;;4876872;29;20021;-73
2021/11/08 16:18:20;;;;;;;7.15;3.25;;;11.20;99.90;;;;;;4877198;29;20036;-75
2021/11/08 16:20:49;;;;;;;8.38;3.65;;;11.20;99.90;;;;;;4876542;29;20437;-74
2021/11/08 16:23:16;;;;;;;11.23;4.53;;;11.10;99.90;;;;;;4876772;29;20064;-75
2021/11/08 16:25:43;;;;;;;7.93;3.35;;;11.20;99.90;;;;;;4872158;29;20025;-76
2021/11/08 16:28:09;;;;;;;6.20;3.47;;;11.20;99.90;;;;;;4882061;29;20092;-76
2021/11/08 16:30:35;;;;;;;8.13;3.42;;;11.20;99.90;;;;;;4881041;29;20025;-76
2021/11/08 16:33:13;;;;;;;10.00;4.25;;;11.10;99.90;;;;;;4873113;29;20067;-76
2021/11/08 16:35:41;;;;;;;13.25;4.15;;;11.10;99.90;;;;;;4871358;29;20389;-76
2021/11/08 16:38:12;;;;;;;9.70;4.40;;;11.10;99.90;;;;;;4872513;29;20036;-78
2021/11/08 16:40:40;;;;;;;9.60;3.58;;;11.10;99.90;;;;;;4872238;29;20061;-78
2021/11/08 16:43:12;;;;;;;7.13;3.58;;;11.10;99.90;;;;;;4872966;29;20085;-79
2021/11/08 16:45:39;;;;;;;10.40;4.53;;;11.10;99.90;;;;;;4872760;29;20114;-80
2021/11/08 16:48:05;;;;;;;11.68;4.95;;;11.10;99.90;;;;;;4872467;29;20067;-80
2021/11/08 16:50:33;;;;;;;11.98;5.30;;;11.10;99.90;;;;;;4873341;29;20033;-76
2021/11/08 16:53:01;;;;;;;14.63;5.50;;;11.10;99.90;;;;;;4875615;29;20052;-75
2021/11/08 16:55:26;;;;;;;11.27;4.45;;;11.10;99.90;;;;;;4883782;29;20103;-75
2021/11/08 16:57:53;;;;;;;10.38;4.65;;;11.10;99.90;;;;;;4867894;29;20088;-74
2021/11/08 17:00:20;;;;;;;7.82;4.30;;;11.10;99.90;;;;;;4857094;29;20029;-75
2021/11/08 17:02:48;;;;;;;8.68;3.85;;;11.10;99.90;;;;;;4860440;29;20042;-75
2021/11/08 17:05:15;;;;;;;10.57;4.30;;;11.10;99.90;;;;;;4875646;29;20021;-81
2021/11/08 17:07:44;;;;;;;12.05;4.50;;;11.10;99.90;;;;;;4873705;29;20097;-77
2021/11/08 17:10:29;;;;;;;12.65;4.93;;;11.10;99.90;;;;;;4877081;29;20029;-76
2021/11/08 17:15:55;;;;;;;8.93;4.78;;;11.00;99.90;;;;;;4881610;29;20124;-77
2021/11/08 17:18:22;;;;;;;11.80;4.40;;;11.10;99.90;;;;;;4892845;29;20052;-76
2021/11/08 17:20:49;;;;;;;10.82;4.55;;;11.10;99.90;;;;;;4874751;29;20112;-76
2021/11/08 17:23:17;;;;;;;8.93;4.20;;;11.10;99.90;;;;;;4885433;29;20029;-75
2021/11/08 17:25:43;;;;;;;7.20;4.05;;;11.00;99.90;;;;;;4874899;29;20017;-79
2021/11/08 17:28:09;;;;;;;8.25;3.95;;;11.10;99.90;;;;;;4874513;29;20033;-75
2021/11/08 17:30:35;;;;;;;8.20;3.97;;;11.10;99.90;;;;;;4880720;29;20129;-75
2021/11/08 17:33:02;;;;;;;8.27;3.88;;;11.10;99.90;;;;;;4875036;29;20553;-76
2021/11/08 17:35:28;;;;;;;11.43;4.07;;;11.10;99.90;;;;;;4875833;29;20040;-77
2021/11/08 17:37:55;;;;;;;8.25;4.20;;;11.10;99.90;;;;;;4875109;29;20032;-75
2021/11/08 17:40:22;;;;;;;10.13;5.05;;;11.10;99.90;;;;;;4875520;29;20025;-76
2021/11/08 17:42:47;;;;;;;9.35;5.13;;;11.10;99.90;;;;;;4874490;29;20032;-79
2021/11/08 17:45:15;;;;;;;12.75;5.30;;;11.00;99.90;;;;;;4875884;29;20025;-74
2021/11/08 17:47:42;;;;;;;9.40;4.88;;;11.00;99.90;;;;;;4876394;29;20634;-75
2021/11/08 17:50:11;;;;;;;11.85;5.18;;;11.00;99.90;;;;;;4874985;29;20029;-75
2021/11/08 17:52:37;;;;;;;10.48;5.15;;;11.00;99.90;;;;;;4875675;29;20035;-74
2021/11/08 17:55:09;;;;;;;10.63;4.63;;;11.00;99.90;;;;;;4869077;29;20037;-76
2021/11/08 17:57:35;;;;;;;9.68;5.05;;;11.00;99.90;;;;;;4886702;29;20080;-76
2021/11/08 18:00:03;;;;;;;9.50;5.07;;;11.00;99.90;;;;;;4890348;29;20088;-80
2021/11/08 18:02:29;;;;;;;9.60;4.88;;;11.00;99.90;;;;;;4888495;29;20036;-75
2021/11/08 18:04:54;;;;;;;16.50;5.93;;;11.00;99.90;;;;;;4893414;29;20033;-80
2021/11/08 18:07:21;;;;;;;12.43;5.35;;;11.00;99.90;;;;;;4880876;29;20064;-80
2021/11/08 18:09:47;;;;;;;14.98;5.28;;;11.00;99.90;;;;;;4875047;29;20037;-74
2021/11/08 18:12:13;;;;;;;9.98;4.90;;;11.00;99.90;;;;;;4870706;29;20048;-75
2021/11/08 18:14:41;;;;;;;9.85;5.47;;;11.00;99.90;;;;;;4873566;29;20060;-75
2021/11/08 18:17:07;;;;;;;9.93;4.95;;;11.00;99.90;;;;;;4875080;29;20108;-75
2021/11/08 18:19:37;;;;;;;7.78;4.85;;;11.00;99.90;;;;;;4874778;29;20033;-76
2021/11/08 18:25:06;;;;;;;13.15;6.25;;;11.00;99.90;;;;;;4875753;29;20048;-77
2021/11/08 18:27:33;;;;;;;12.70;4.82;;;11.00;99.90;;;;;;4874965;29;20132;-75
2021/11/08 18:29:59;;;;;;;9.85;5.28;;;11.00;99.90;;;;;;4874778;29;20056;-80
2021/11/08 18:32:29;;;;;;;10.30;5.28;;;11.00;99.90;;;;;;4874230;29;20029;-78
2021/11/08 18:34:56;;;;;;;13.35;5.57;;;11.00;99.90;;;;;;4874880;29;20025;-80
2021/11/08 18:37:24;;;;;;;9.88;4.05;;;11.00;99.90;;;;;;4874188;29;20029;-78
2021/11/08 18:39:50;;;;;;;9.73;4.32;;;11.00;99.90;;;;;;4874186;29;20135;-78
2021/11/08 18:42:18;;;;;;;9.50;4.65;;;11.00;99.90;;;;;;4874838;29;20128;-76
2021/11/08 18:44:44;;;;;;;10.02;4.88;;;11.00;99.90;;;;;;4874089;29;20060;-80
2021/11/08 18:47:09;;;;;;;13.82;5.45;;;11.00;99.90;;;;;;4873629;29;20092;-79
2021/11/08 18:49:36;;;;;;;11.82;5.10;;;11.00;99.90;;;;;;4885387;29;20036;-76
2021/11/08 18:52:02;;;;;;;7.95;4.22;;;11.00;99.90;;;;;;4892331;29;20040;-76
2021/11/08 18:54:28;;;;;;;8.35;5.00;;;11.00;99.90;;;;;;4891341;29;20557;-75
2021/11/08 18:56:59;;;;;;;10.20;5.43;;;11.00;99.90;;;;;;4875751;29;20158;-77
2021/11/08 18:59:26;;;;;;;10.68;5.25;;;11.00;99.90;;;;;;4870608;29;20032;-76
2021/11/08 19:01:57;;;;;;;9.93;4.60;;;11.00;99.90;;;;;;4874064;29;20713;-76
2021/11/08 19:04:31;;;;;;;10.68;5.35;;;10.90;99.90;;;;;;4864172;29;20021;-79
2021/11/08 19:09:27;;;;;;;8.57;4.88;;;10.90;99.90;;;;;;4857095;29;20060;-77
2021/11/08 19:11:53;;;;;;;9.55;5.03;;;10.90;99.90;;;;;;4856429;29;20029;-75
2021/11/08 19:14:19;;;;;;;10.65;4.68;;;10.90;99.90;;;;;;4855135;29;20530;-77
2021/11/08 19:16:46;;;;;;;10.00;4.78;;;10.90;99.90;;;;;;4870187;29;20041;-78
2021/11/08 19:19:15;;;;;;;7.93;4.35;;;10.90;99.90;;;;;;4855513;29;20033;-77
2021/11/08 19:21:42;;;;;;;8.45;4.55;;;10.90;99.90;;;;;;4870385;29;20063;-76
2021/11/08 19:24:11;;;;;;;10.13;4.63;;;10.90;99.90;;;;;;4854897;29;20025;-77
2021/11/08 19:26:38;;;;;;;11.18;4.60;;;10.90;99.90;;;;;;4870150;29;20042;-76
2021/11/08 19:29:10;;;;;;;11.20;4.57;;;10.90;99.90;;;;;;4854563;29;20026;-75
2021/11/08 19:31:36;;;;;;;10.15;5.00;;;10.90;99.90;;;;;;4856924;29;20537;-76
2021/11/08 19:39:23;;;;;;;9.25;4.88;;;10.80;99.90;;;;;;4856243;29;20043;-78
2021/11/08 19:41:48;;;;;;;8.20;4.75;;;10.80;99.90;;;;;;4854242;29;20025;-77
2021/11/08 19:44:14;;;;;;;18.40;6.18;;;10.80;99.90;;;;;;4854869;29;20112;-80
2021/11/08 19:46:41;;;;;;;10.93;5.47;;;10.80;99.90;;;;;;4854222;29;20454;-79
2021/11/08 19:49:07;;;;;;;13.70;6.80;;;10.80;99.90;;;;;;4852923;29;20474;-81
2021/11/08 19:51:33;;;;;;;9.70;5.13;;;10.80;99.90;;;;;;4853943;29;20033;-80
2021/11/08 19:53:59;;;;;;;9.32;5.18;;;10.80;99.90;;;;;;4873459;29;20372;-78
2021/11/08 19:56:25;;;;;;;9.82;5.10;;;10.80;99.90;;;;;;4868865;29;20531;-76
2021/11/08 19:58:52;;;;;;;8.88;4.65;;;10.80;99.90;;;;;;4868027;29;20025;-77
2021/11/08 20:01:19;;;;;;;7.28;4.25;;;10.80;99.90;;;;;;4873335;29;20033;-77
2021/11/08 20:03:53;;;;;;;11.80;4.93;;;10.80;99.90;;;;;;4902289;29;20032;-78
2021/11/08 20:06:23;;;;;;;14.45;5.53;;;10.80;99.90;;;;;;4912134;29;20036;-78
2021/11/08 20:08:53;;;;;;;10.07;4.90;;;10.80;99.90;;;;;;4895447;29;20043;-77
2021/11/08 20:11:19;;;;;;;8.55;5.30;;;10.80;99.90;;;;;;4899380;29;20523;-77
2021/11/08 20:16:13;;;;;;;12.85;5.75;;;10.70;99.90;;;;;;4912164;29;20032;-78
2021/11/08 20:18:39;;;;;;;10.75;5.10;;;10.80;99.90;;;;;;4906571;29;20024;-77
2021/11/08 20:21:06;;;;;;;11.27;5.07;;;10.80;99.90;;;;;;4881000;29;20044;-78
2021/11/08 20:23:33;;;;;;;9.98;4.95;;;10.80;99.90;;;;;;4893364;29;20075;-75
2021/11/08 20:26:00;;;;;;;8.55;4.75;;;10.70;99.90;;;;;;4894684;29;20032;-76
2021/11/08 20:28:28;;;;;;;11.45;4.97;;;10.70;99.90;;;;;;4880440;29;20409;-75
2021/11/08 20:31:19;;;;;;;10.95;6.00;;;10.70;99.90;;;;;;4879947;29;20143;-76
2021/11/08 20:34:10;;;;;;;8.65;5.38;;;10.70;99.90;;;;;;4897177;29;20040;-77
2021/11/08 20:37:04;;;;;;;10.48;5.13;;;10.60;99.90;;;;;;4896504;29;20072;-77
2021/11/08 20:39:43;;;;;;;11.32;6.00;;;10.70;99.90;;;;;;4911148;29;20177;-76
2021/11/08 20:42:18;;;;;;;11.80;5.20;;;10.60;99.90;;;;;;4907640;29;20029;-76
2021/11/08 20:57:59;;;;;;;9.23;6.45;;;10.40;99.90;;;;;;4896547;29;20089;-76
2021/11/08 21:00:38;;;;;;;16.83;10.00;;;10.30;99.90;;;;;;4878401;29;20111;-75
2021/11/08 21:03:10;;;;;;;18.88;13.90;;;10.20;99.90;;;;;;4896636;29;20597;-75
2021/11/08 21:05:54;;;;;;;21.15;17.77;;;10.10;99.90;;;;;;4896402;29;20021;-79
2021/11/08 21:08:41;;;;;;;21.55;19.15;;;10.00;99.90;;;;;;4878907;29;20049;-78
2021/11/08 21:11:13;;;;;;;23.92;19.08;;;9.90;99.90;;;;;;4896578;29;20517;-77
2021/11/08 21:16:10;;;;;;;24.55;17.17;;;9.80;99.90;;;;;;4915200;29;20453;-77
2021/11/08 21:18:36;;;;;;;20.02;14.95;;;9.70;99.90;;;;;;4898176;29;20111;-76
2021/11/08 21:21:02;;;;;;;14.45;11.68;;;9.70;99.90;;;;;;4897263;29;20036;-77
2021/11/08 21:23:28;;;;;;;13.25;8.68;;;9.60;99.90;;;;;;4898024;29;20104;-78
2021/11/08 21:26:03;;;;;;;13.07;6.90;;;9.60;99.90;;;;;;4907649;29;20458;-77
2021/11/08 21:28:39;;;;;;;12.73;6.40;;;9.50;99.90;;;;;;4893714;29;20040;-76
2021/11/08 21:39:16;;;;;;;11.68;5.63;;;9.40;99.90;;;;;;4877384;29;20754;-78
2021/11/08 21:41:41;;;;;;;9.60;4.95;;;9.30;99.90;;;;;;4859962;29;20120;-78
2021/11/08 21:44:07;;;;;;;10.38;5.32;;;9.30;99.90;;;;;;4877071;29;20165;-78
2021/11/08 21:46:34;;;;;;;13.23;5.63;;;9.20;99.90;;;;;;4876919;29;20730;-77
2021/11/08 21:49:00;;;;;;;10.10;5.95;;;9.20;99.90;;;;;;4894374;29;20024;-77
2021/11/08 21:51:26;;;;;;;12.80;5.93;;;9.20;99.90;;;;;;4895300;29;20035;-78
2021/11/08 21:53:52;;;;;;;10.43;5.70;;;9.10;99.90;;;;;;4883640;29;20041;-78
2021/11/08 21:56:19;;;;;;;10.27;4.90;;;9.10;99.90;;;;;;4896705;29;20123;-77
2021/11/08 21:58:45;;;;;;;11.38;5.38;;;9.10;99.90;;;;;;4897519;29;20124;-80
2021/11/08 22:01:11;;;;;;;14.57;5.50;;;9.10;99.90;;;;;;4885321;29;20451;-78
2021/11/08 22:03:37;;;;;;;12.25;5.63;;;9.00;99.90;;;;;;4894695;29;20028;-79
2021/11/08 22:06:03;;;;;;;13.73;5.88;;;9.00;99.90;;;;;;4883859;29;20028;-78
2021/11/08 22:08:29;;;;;;;11.05;5.18;;;9.00;99.90;;;;;;4878426;29;20079;-76
2021/11/08 22:10:55;;;;;;;11.85;5.38;;;9.00;99.90;;;;;;4895129;29;20021;-79
2021/11/08 22:13:21;;;;;;;9.82;4.85;;;9.00;99.90;;;;;;4892313;29;20047;-78
2021/11/08 22:15:46;;;;;;;9.70;4.57;;;8.90;99.90;;;;;;4897064;29;20393;-78
2021/11/08 22:18:12;;;;;;;11.63;5.30;;;8.90;99.90;;;;;;4896173;29;20169;-78
2021/11/08 22:20:39;;;;;;;10.07;5.22;;;8.90;99.90;;;;;;4897252;29;20024;-77
2021/11/08 22:23:07;;;;;;;9.85;4.35;;;8.80;99.90;;;;;;4892666;29;20036;-81
2021/11/08 22:25:35;;;;;;;8.02;4.75;;;8.80;99.90;;;;;;4881948;29;20033;-78
2021/11/08 22:28:00;;;;;;;9.18;5.43;;;8.70;99.90;;;;;;4880439;29;20040;-78
2021/11/08 22:30:26;;;;;;;9.45;5.68;;;8.70;99.90;;;;;;4880476;29;20157;-78
2021/11/08 22:32:52;;;;;;;10.52;5.45;;;8.70;99.90;;;;;;4897263;29;20084;-78
2021/11/08 22:35:19;;;;;;;8.50;6.05;;;8.60;99.90;;;;;;4898191;29;20099;-78
2021/11/08 22:37:46;;;;;;;8.35;5.72;;;8.60;99.90;;;;;;4880354;29;20028;-78
2021/11/08 22:40:13;;;;;;;8.55;5.72;;;8.60;99.90;;;;;;4881034;29;20024;-78
2021/11/08 22:42:39;;;;;;;14.80;6.47;;;8.50;99.90;;;;;;4881133;29;20033;-78
2021/11/08 22:45:06;;;;;;;10.93;5.85;;;8.50;99.90;;;;;;4880223;29;20507;-78
2021/11/08 22:47:32;;;;;;;9.93;5.93;;;8.40;99.90;;;;;;4881084;29;20445;-78
2021/11/08 22:49:58;;;;;;;7.72;5.80;;;8.40;99.90;;;;;;4880881;29;20084;-78
2021/11/08 22:52:23;;;;;;;11.30;5.53;;;8.40;99.90;;;;;;4897216;29;20111;-77
2021/11/08 22:54:49;;;;;;;7.45;4.88;;;8.40;99.90;;;;;;4897810;29;20028;-77
2021/11/08 22:57:14;;;;;;;7.40;5.18;;;8.30;99.90;;;;;;4877327;29;20052;-77
2021/11/08 22:59:41;;;;;;;7.28;5.07;;;8.30;99.90;;;;;;4878173;29;20033;-77
2021/11/08 23:02:06;;;;;;;11.05;5.57;;;8.30;99.90;;;;;;4878736;29;20404;-77
2021/11/08 23:04:32;;;;;;;9.93;5.00;;;8.30;99.90;;;;;;4877896;29;20021;-77
2021/11/08 23:06:58;;;;;;;10.18;5.50;;;8.20;99.90;;;;;;4877872;29;20069;-77
2021/11/08 23:09:24;;;;;;;8.15;5.50;;;8.20;99.90;;;;;;4877422;29;20074;-78
2021/11/08 23:11:50;;;;;;;9.38;4.90;;;8.20;99.90;;;;;;4878805;29;20021;-77
2021/11/08 23:14:15;;;;;;;9.77;5.93;;;8.20;99.90;;;;;;4878286;29;20088;-77
2021/11/08 23:16:41;;;;;;;11.43;5.53;;;8.20;99.90;;;;;;4877329;29;20040;-78
2021/11/08 23:19:06;;;;;;;11.80;5.53;;;8.10;99.90;;;;;;4877042;29;20025;-78
2021/11/08 23:21:32;;;;;;;13.63;6.15;;;8.10;99.90;;;;;;4876883;29;20509;-79
2021/11/08 23:24:01;;;;;;;10.70;5.45;;;8.10;99.90;;;;;;4877190;29;20021;-77
2021/11/08 23:26:27;;;;;;;10.25;5.95;;;8.00;99.90;;;;;;4876912;29;20089;-78
2021/11/08 23:28:53;;;;;;;14.05;5.18;;;8.00;99.90;;;;;;4877306;29;20119;-78
2021/11/08 23:31:20;;;;;;;6.72;5.13;;;8.00;99.90;;;;;;4878296;29;20136;-77
2021/11/08 23:33:47;;;;;;;10.45;4.90;;;8.10;99.90;;;;;;4877814;29;20043;-77
2021/11/08 23:36:14;;;;;;;10.38;5.40;;;8.00;99.90;;;;;;4878456;29;20465;-78
2021/11/08 23:38:41;;;;;;;7.43;5.53;;;8.00;99.90;;;;;;4877086;29;20025;-78
2021/11/08 23:41:08;;;;;;;9.73;5.78;;;8.00;99.90;;;;;;4876505;29;20477;-79
2021/11/08 23:43:35;;;;;;;9.63;5.50;;;7.90;99.90;;;;;;4877155;29;20503;-78
2021/11/08 23:46:01;;;;;;;11.27;6.15;;;7.90;99.90;;;;;;4877879;29;20108;-77
2021/11/08 23:48:27;;;;;;;8.00;5.20;;;7.90;99.90;;;;;;4876769;29;20780;-79
2021/11/08 23:50:54;;;;;;;9.07;5.35;;;7.90;99.90;;;;;;4878392;29;20025;-78
2021/11/08 23:53:20;;;;;;;8.77;4.75;;;7.80;99.90;;;;;;4878083;29;20408;-78
2021/11/08 23:55:46;;;;;;;9.65;5.47;;;7.80;99.90;;;;;;4876431;29;20021;-79
2021/11/08 23:58:12;;;;;;;8.27;5.07;;;7.80;99.90;;;;;;4891056;29;20049;-78
